Time;durP1;ratioP1;P1;durP2;ratioP2;P2;SDS_P1;SDS_P2;PMS_P1;PMS_P2;Temp;Humidity;BMP_temperature;BMP_pressure;BME280_temperature;BME280_humidity;BME280_pressure;Samples;Min_cycle;Max_cycle;Signal;HPM_P1;HPM_P2
2022/12/02 00:00:53;;;;;;;25.70;8.73;;;;;;;0.21;100.00;101377.16;5052527;28;20425;-81
2022/12/02 00:03:21;;;;;;;23.47;10.13;;;;;;;0.21;100.00;101379.84;5052276;28;20733;-80
2022/12/02 00:05:54;;;;;;;18.83;9.63;;;;;;;0.17;100.00;101377.81;5052236;28;20913;-81
2022/12/02 00:08:22;;;;;;;17.17;7.23;;;;;;;0.19;100.00;101378.41;5034874;28;20465;-82
2022/12/02 00:10:50;;;;;;;24.90;9.03;;;;;;;0.20;100.00;101374.69;5052397;28;20488;-81
2022/12/02 00:13:25;;;;;;;17.77;7.50;;;;;;;0.19;100.00;101365.00;5052220;28;20426;-80
2022/12/02 00:16:00;;;;;;;9.70;8.87;;;;;;;0.22;100.00;101372.59;5052417;28;20556;-80
2022/12/02 00:18:26;;;;;;;11.03;5.90;;;;;;;0.26;100.00;101365.72;5051156;28;20417;-81
2022/12/02 00:20:51;;;;;;;6.97;2.70;;;;;;;0.25;100.00;101361.41;5052194;28;20418;-81
2022/12/02 00:23:17;;;;;;;33.40;11.50;;;;;;;0.22;100.00;101365.34;5051955;28;20428;-80
2022/12/02 00:25:48;;;;;;;3.57;3.13;;;;;;;0.18;100.00;101357.97;5052130;28;20179;-81
2022/12/02 00:28:15;;;;;;;25.17;10.63;;;;;;;0.17;100.00;101357.16;5052052;28;20278;-81
2022/12/02 00:30:40;;;;;;;22.53;7.53;;;;;;;0.14;100.00;101354.88;5052057;28;20842;-80
2022/12/02 00:33:06;;;;;;;15.17;5.57;;;;;;;0.14;100.00;101354.88;5051724;28;20461;-80
2022/12/02 00:35:31;;;;;;;26.33;10.23;;;;;;;0.14;100.00;101357.56;5052111;28;20290;-81
2022/12/02 00:37:57;;;;;;;41.97;12.23;;;;;;;0.11;100.00;101357.19;5033896;28;20191;-78
2022/12/02 00:40:22;;;;;;;11.70;4.37;;;;;;;0.14;100.00;101362.94;5051731;28;20190;-81
2022/12/02 00:42:48;;;;;;;6.07;3.10;;;;;;;0.13;100.00;101352.41;5051580;28;20171;-81
2022/12/02 00:47:58;;;;;;;6.33;3.33;;;;;;;0.09;100.00;101354.72;5051824;28;20276;-81
2022/12/02 00:50:23;;;;;;;22.53;10.60;;;;;;;0.06;100.00;101348.97;5051651;28;20421;-81
2022/12/02 00:52:49;;;;;;;27.10;7.03;;;;;;;0.07;100.00;101351.44;5051362;28;20279;-80
2022/12/02 00:55:14;;;;;;;24.30;8.93;;;;;;;0.07;100.00;101359.50;5051601;28;20179;-81
2022/12/02 00:57:39;;;;;;;7.97;4.60;;;;;;;0.03;100.00;101354.78;5033530;28;20175;-79
2022/12/02 01:00:06;;;;;;;8.53;7.73;;;;;;;0.07;100.00;101358.69;5051494;28;20178;-80
2022/12/02 01:02:31;;;;;;;39.30;13.70;;;;;;;0.10;100.00;101358.22;5051170;28;20198;-79
2022/12/02 01:04:57;;;;;;;20.53;7.30;;;;;;;0.05;100.00;101361.59;5051391;28;20885;-81
2022/12/02 01:07:22;;;;;;;6.80;3.07;;;;;;;0.05;100.00;101364.28;5050932;28;20199;-79
2022/12/02 01:09:47;;;;;;;1.47;1.13;;;;;;;0.08;100.00;101365.69;5051364;28;20179;-79
2022/12/02 01:12:13;;;;;;;37.67;13.67;;;;;;;0.03;100.00;101368.22;5051186;28;20303;-79
2022/12/02 01:14:38;;;;;;;43.37;14.13;;;;;;;0.01;100.00;101363.06;5051351;28;20183;-80
2022/12/02 01:17:04;;;;;;;42.33;13.23;;;;;;;-0.02;100.00;101371.53;5051132;28;20184;-80
2022/12/02 01:19:29;;;;;;;22.33;11.70;;;;;;;-0.04;100.00;101368.25;5051193;28;20183;-79
2022/12/02 01:21:55;;;;;;;52.33;13.17;;;;;;;-0.05;100.00;101366.63;5033222;28;20278;-81
2022/12/02 01:24:20;;;;;;;3.30;3.10;;;;;;;-0.03;100.00;101368.03;5050918;28;20171;-80
2022/12/02 01:26:45;;;;;;;40.07;7.83;;;;;;;-0.03;100.00;101378.78;5033125;28;20572;-78
2022/12/02 01:29:10;;;;;;;3.33;3.13;;;;;;;-0.03;100.00;101373.41;5050664;28;20179;-81
2022/12/02 01:31:36;;;;;;;8.73;3.37;;;;;;;-0.01;100.00;101376.69;5051086;28;20171;-80
2022/12/02 01:34:01;;;;;;;17.23;9.20;;;;;;;0.00;100.00;101377.56;5032733;28;20179;-80
2022/12/02 01:36:26;;;;;;;22.43;6.30;;;;;;;-0.04;100.00;101385.19;5050868;28;20182;-81
2022/12/02 01:38:52;;;;;;;6.43;4.33;;;;;;;-0.05;100.00;101378.19;5050836;28;20203;-79
2022/12/02 01:41:17;;;;;;;14.30;7.37;;;;;;;-0.03;100.00;101381.47;5032833;28;20167;-80
2022/12/02 01:43:43;;;;;;;6.33;5.70;;;;;;;-0.02;100.00;101376.91;5050442;28;20243;-81
2022/12/02 01:46:08;;;;;;;11.23;5.33;;;;;;;-0.02;100.00;101371.53;5050715;28;20179;-82
2022/12/02 01:48:35;;;;;;;9.03;3.87;;;;;;;-0.05;100.00;101377.34;5033179;28;20488;-79
2022/12/02 01:51:01;;;;;;;52.67;14.17;;;;;;;-0.08;100.00;101378.63;5032673;28;20189;-81
2022/12/02 01:53:27;;;;;;;7.67;7.17;;;;;;;-0.08;100.00;101367.06;5050246;28;20422;-80
2022/12/02 01:55:52;;;;;;;11.33;8.30;;;;;;;-0.10;100.00;101372.66;5032378;28;20219;-81
2022/12/02 01:58:24;;;;;;;2.20;2.10;;;;;;;-0.06;100.00;101375.72;5050554;28;20581;-81
2022/12/02 02:00:50;;;;;;;17.83;6.13;;;;;;;-0.09;100.00;101374.28;5050639;28;20201;-81
2022/12/02 02:03:15;;;;;;;23.10;10.53;;;;;;;-0.13;100.00;101364.22;5050472;28;20495;-81
2022/12/02 02:05:41;;;;;;;61.47;13.50;;;;;;;-0.20;100.00;101361.56;5050264;28;20245;-81
2022/12/02 02:08:09;;;;;;;23.47;9.17;;;;;;;-0.24;100.00;101362.22;5032659;28;20215;-81
2022/12/02 02:10:36;;;;;;;36.17;4.20;;;;;;;-0.25;100.00;101363.25;5050923;28;20182;-81
2022/12/02 02:13:02;;;;;;;26.20;14.27;;;;;;;-0.22;100.00;101363.66;5050079;28;20956;-80
2022/12/02 02:15:28;;;;;;;4.93;4.50;;;;;;;-0.26;100.00;101367.00;5050590;28;20432;-81
2022/12/02 02:17:55;;;;;;;4.90;4.73;;;;;;;-0.27;100.00;101362.66;5050452;28;20414;-80
2022/12/02 02:20:23;;;;;;;41.97;11.47;;;;;;;-0.32;100.00;101361.44;5050794;28;20587;-80
2022/12/02 02:23:04;;;;;;;69.37;18.17;;;;;;;-0.39;100.00;101359.84;5050492;28;20746;-79
2022/12/02 02:25:30;;;;;;;8.37;4.60;;;;;;;-0.33;100.00;101356.28;5050965;28;20413;-77
2022/12/02 02:27:59;;;;;;;8.40;7.30;;;;;;;-0.33;100.00;101361.66;5050794;28;20472;-76
2022/12/02 02:30:27;;;;;;;10.10;6.77;;;;;;;-0.35;100.00;101351.13;5050491;28;20928;-76
2022/12/02 02:32:54;;;;;;;0.57;0.57;;;;;;;-0.33;100.00;101353.59;5050211;28;20497;-78
2022/12/02 02:35:20;;;;;;;9.43;6.53;;;;;;;-0.35;100.00;101353.00;5050813;28;20414;-78
2022/12/02 02:37:47;;;;;;;27.07;12.97;;;;;;;-0.35;100.00;101344.94;5051327;28;20167;-77
2022/12/02 02:40:15;;;;;;;20.73;9.57;;;;;;;-0.40;100.00;101350.16;5050410;28;20425;-78
2022/12/02 02:42:46;;;;;;;9.13;8.20;;;;;;;-0.44;100.00;101348.91;5053154;28;20429;-79
2022/12/02 02:45:12;;;;;;;28.00;10.07;;;;;;;-0.48;100.00;101347.72;5053906;28;20792;-77
2022/12/02 02:47:38;;;;;;;13.50;7.73;;;;;;;-0.47;100.00;101341.31;5054261;28;20468;-76
2022/12/02 02:50:04;;;;;;;59.13;15.73;;;;;;;-0.47;100.00;101346.66;5054151;28;20661;-76
2022/12/02 02:52:29;;;;;;;31.37;12.67;;;;;;;-0.48;100.00;101353.06;5054116;28;20182;-78
2022/12/02 02:54:54;;;;;;;15.93;6.03;;;;;;;-0.47;100.00;101344.81;5053569;28;20414;-77
2022/12/02 02:57:20;;;;;;;21.43;7.73;;;;;;;-0.50;100.00;101342.56;5035870;28;20186;-77
2022/12/02 02:59:48;;;;;;;49.83;13.47;;;;;;;-0.49;100.00;101335.34;5053880;28;20241;-76
2022/12/02 03:02:13;;;;;;;7.17;6.70;;;;;;;-0.47;100.00;101333.25;5054032;28;20175;-77
2022/12/02 03:04:41;;;;;;;5.00;4.70;;;;;;;-0.46;100.00;101330.34;5053786;28;20436;-79
2022/12/02 03:07:06;;;;;;;38.63;12.00;;;;;;;-0.50;100.00;101333.69;5035923;28;20689;-76
2022/12/02 03:09:33;;;;;;;8.80;6.07;;;;;;;-0.47;100.00;101325.19;5053695;28;20421;-77
2022/12/02 03:11:58;;;;;;;26.60;11.30;;;;;;;-0.48;100.00;101323.56;5053314;28;20271;-77
2022/12/02 03:14:25;;;;;;;70.00;18.00;;;;;;;-0.49;100.00;101328.09;5053535;28;20521;-77
2022/12/02 03:16:51;;;;;;;20.17;12.50;;;;;;;-0.48;100.00;101320.88;5053397;28;20186;-76
2022/12/02 03:19:17;;;;;;;33.07;10.53;;;;;;;-0.50;100.00;101326.47;5019099;28;20430;-77
2022/12/02 03:21:43;;;;;;;18.20;8.80;;;;;;;-0.47;100.00;101325.19;5035540;28;20217;-77
2022/12/02 03:24:09;;;;;;;0.87;0.87;;;;;;;-0.42;100.00;101318.16;5052965;28;20433;-76
2022/12/02 03:26:35;;;;;;;16.03;6.77;;;;;;;-0.45;100.00;101326.63;5053068;28;20206;-76
2022/12/02 03:29:03;;;;;;;5.53;5.23;;;;;;;-0.43;100.00;101318.38;5053282;28;20527;-78
2022/12/02 03:31:29;;;;;;;19.57;7.13;;;;;;;-0.45;100.00;101323.13;5053158;28;20175;-77
2022/12/02 03:33:55;;;;;;;5.67;5.30;;;;;;;-0.41;100.00;101324.34;5053158;28;20842;-76
2022/12/02 03:36:21;;;;;;;10.40;6.33;;;;;;;-0.40;100.00;101317.94;5053005;28;20933;-77
2022/12/02 03:38:47;;;;;;;3.63;2.07;;;;;;;-0.43;100.00;101315.69;5053107;28;20546;-77
2022/12/02 03:41:13;;;;;;;19.63;7.43;;;;;;;-0.42;100.00;101312.78;5052782;28;20179;-79
2022/12/02 03:43:38;;;;;;;16.20;8.20;;;;;;;-0.44;100.00;101314.03;5052735;28;20203;-76
2022/12/02 03:46:06;;;;;;;1.20;1.20;;;;;;;-0.45;100.00;101309.69;5052836;28;20463;-77
2022/12/02 03:48:33;;;;;;;25.47;10.93;;;;;;;-0.45;100.00;101309.69;5052660;28;20705;-77
2022/12/02 03:50:58;;;;;;;7.07;3.60;;;;;;;-0.43;100.00;101311.16;5052826;28;20464;-76
2022/12/02 03:53:24;;;;;;;17.20;9.97;;;;;;;-0.46;100.00;101310.72;5052464;28;20454;-75
2022/12/02 03:55:49;;;;;;;51.80;16.77;;;;;;;-0.46;100.00;101308.88;5052639;28;20188;-76
2022/12/02 03:58:15;;;;;;;16.03;9.17;;;;;;;-0.45;100.00;101298.97;5052805;28;20183;-76
2022/12/02 04:00:40;;;;;;;1.37;1.27;;;;;;;-0.42;100.00;101301.22;5052685;28;20623;-77
2022/12/02 04:03:05;;;;;;;48.07;15.97;;;;;;;-0.44;100.00;101297.91;5052301;28;20210;-77
2022/12/02 04:05:31;;;;;;;17.07;7.87;;;;;;;-0.43;100.00;101292.34;5052490;28;20183;-77
2022/12/02 04:07:56;;;;;;;18.23;10.70;;;;;;;-0.43;100.00;101300.41;5052197;28;20736;-75
2022/12/02 04:10:22;;;;;;;32.73;13.50;;;;;;;-0.41;100.00;101298.31;5052379;28;20214;-76
2022/12/02 04:12:47;;;;;;;6.13;5.17;;;;;;;-0.43;100.00;101297.72;5051970;28;20274;-77
2022/12/02 04:15:12;;;;;;;13.47;7.70;;;;;;;-0.42;100.00;101296.69;5052538;28;20172;-76
2022/12/02 04:17:38;;;;;;;24.37;9.87;;;;;;;-0.39;100.00;101295.41;5034171;28;20225;-77
2022/12/02 04:20:05;;;;;;;1.67;1.57;;;;;;;-0.38;100.00;101297.06;5052119;28;20171;-76
2022/12/02 04:22:30;;;;;;;1.40;1.40;;;;;;;-0.39;100.00;101290.06;5051809;28;20210;-75
2022/12/02 04:24:59;;;;;;;6.27;5.43;;;;;;;-0.39;100.00;101296.25;5052168;28;20732;-76
2022/12/02 04:27:25;;;;;;;17.30;8.07;;;;;;;-0.43;100.00;101289.69;5051897;28;20207;-77
2022/12/02 04:29:50;;;;;;;41.23;18.07;;;;;;;-0.44;100.00;101282.63;5052099;28;20422;-76
2022/12/02 04:32:16;;;;;;;20.30;6.80;;;;;;;-0.38;100.00;101284.47;5051812;28;20457;-76
2022/12/02 04:34:42;;;;;;;1.90;1.40;;;;;;;-0.38;100.00;101283.63;5051649;28;20179;-77
2022/12/02 04:37:07;;;;;;;17.07;7.57;;;;;;;-0.42;100.00;101277.91;5033741;28;20576;-75
2022/12/02 04:39:32;;;;;;;27.30;13.10;;;;;;;-0.42;100.00;101271.72;5051789;28;20609;-77
2022/12/02 04:41:58;;;;;;;7.27;3.77;;;;;;;-0.37;100.00;101278.06;5051638;28;20230;-76
2022/12/02 04:44:23;;;;;;;10.23;5.93;;;;;;;-0.35;100.00;101275.97;5051450;28;20618;-77
2022/12/02 04:46:48;;;;;;;4.20;2.73;;;;;;;-0.35;100.00;101275.97;5051397;28;20234;-79
2022/12/02 04:49:15;;;;;;;62.83;19.13;;;;;;;-0.38;100.00;101278.28;5051504;28;20530;-77
2022/12/02 04:51:40;;;;;;;25.43;8.77;;;;;;;-0.39;100.00;101279.31;5051711;28;20237;-76
2022/12/02 04:54:05;;;;;;;15.00;5.73;;;;;;;-0.36;100.00;101276.19;5051124;28;20418;-77
2022/12/02 04:56:31;;;;;;;11.63;7.80;;;;;;;-0.40;100.00;101281.19;5051377;28;20234;-78
2022/12/02 04:58:56;;;;;;;17.53;7.10;;;;;;;-0.41;100.00;101271.47;5051451;28;20579;-76
2022/12/02 05:01:21;;;;;;;15.77;9.47;;;;;;;-0.42;100.00;101269.84;5051435;28;20179;-77
2022/12/02 05:03:46;;;;;;;3.83;3.53;;;;;;;-0.39;100.00;101268.56;5050819;28;20171;-76
2022/12/02 05:06:12;;;;;;;28.63;9.70;;;;;;;-0.37;100.00;101266.50;5051466;28;20613;-78
2022/12/02 05:08:37;;;;;;;28.03;8.23;;;;;;;-0.36;100.00;101265.44;5050288;28;20416;-76
2022/12/02 05:11:02;;;;;;;11.23;6.67;;;;;;;-0.38;100.00;101271.03;5051515;28;20186;-77
2022/12/02 05:13:27;;;;;;;1.90;1.60;;;;;;;-0.34;100.00;101269.56;5050856;28;20211;-77
2022/12/02 05:15:53;;;;;;;15.27;9.10;;;;;;;-0.31;100.00;101268.28;5051155;28;20224;-76
2022/12/02 05:18:18;;;;;;;25.07;5.33;;;;;;;-0.33;100.00;101270.38;5051189;28;20194;-76
2022/12/02 05:20:43;;;;;;;7.00;5.67;;;;;;;-0.35;100.00;101272.47;5051091;28;20179;-78
2022/12/02 05:23:09;;;;;;;29.37;10.30;;;;;;;-0.39;100.00;101269.41;5050782;28;20179;-77
2022/12/02 05:25:34;;;;;;;0.97;0.97;;;;;;;-0.38;100.00;101267.53;5051067;28;20536;-76
2022/12/02 05:27:59;;;;;;;8.80;3.93;;;;;;;-0.39;100.00;101269.41;5050847;28;20211;-76
2022/12/02 05:30:25;;;;;;;3.70;3.50;;;;;;;-0.32;100.00;101272.00;5050945;28;20539;-76
2022/12/02 05:32:51;;;;;;;15.20;5.40;;;;;;;-0.33;100.00;101270.38;5050547;28;20250;-76
2022/12/02 05:35:16;;;;;;;5.73;4.77;;;;;;;-0.35;100.00;101265.22;5033013;28;20179;-78
2022/12/02 05:37:41;;;;;;;15.07;6.63;;;;;;;-0.37;100.00;101261.13;5050722;28;20755;-77
2022/12/02 05:40:08;;;;;;;9.33;5.73;;;;;;;-0.41;100.00;101268.81;5050765;28;20166;-76
2022/12/02 05:42:34;;;;;;;4.00;3.30;;;;;;;-0.38;100.00;101270.22;5050607;28;20679;-78
2022/12/02 05:45:05;;;;;;;9.23;3.80;;;;;;;-0.38;100.00;101275.59;5051029;28;20513;-76
2022/12/02 05:47:31;;;;;;;6.40;6.00;;;;;;;-0.38;100.00;101267.53;5050717;28;20457;-76
2022/12/02 05:49:58;;;;;;;6.23;5.83;;;;;;;-0.36;100.00;101271.63;5050948;28;20418;-77
2022/12/02 05:52:26;;;;;;;16.77;12.97;;;;;;;-0.37;100.00;101267.31;5032859;28;20221;-77
2022/12/02 05:54:54;;;;;;;5.27;4.97;;;;;;;-0.37;100.00;101271.84;5050262;28;20430;-77
2022/12/02 05:57:25;;;;;;;17.97;9.77;;;;;;;-0.39;100.00;101277.44;5050571;28;20433;-77
2022/12/02 05:59:56;;;;;;;5.50;3.73;;;;;;;-0.38;100.00;101281.78;5050778;28;20461;-76
2022/12/02 06:02:27;;;;;;;5.07;4.57;;;;;;;-0.38;100.00;101276.41;5050655;28;20403;-76
2022/12/02 06:04:54;;;;;;;14.93;8.30;;;;;;;-0.34;100.00;101271.41;5050348;28;20976;-78
2022/12/02 06:07:19;;;;;;;36.47;17.03;;;;;;;-0.37;100.00;101283.41;5032504;28;20465;-78
2022/12/02 06:09:44;;;;;;;8.67;5.10;;;;;;;-0.35;100.00;101285.88;5050454;28;20426;-79
2022/12/02 06:12:16;;;;;;;7.13;4.50;;;;;;;-0.35;100.00;101278.66;5050249;28;20282;-80
2022/12/02 06:14:47;;;;;;;1.97;1.80;;;;;;;-0.36;100.00;101284.25;5053792;28;20171;-76
2022/12/02 06:17:17;;;;;;;8.10;7.10;;;;;;;-0.39;100.00;101282.81;5054618;28;20406;-82
2022/12/02 06:19:43;;;;;;;4.37;3.87;;;;;;;-0.37;100.00;101293.34;5036815;28;20421;-80
2022/12/02 06:22:17;;;;;;;4.80;2.63;;;;;;;-0.39;100.00;101290.88;5054375;28;20421;-80
2022/12/02 06:24:43;;;;;;;28.27;10.87;;;;;;;-0.39;100.00;101285.50;5054164;28;20421;-81
2022/12/02 06:27:13;;;;;;;17.03;6.80;;;;;;;-0.38;100.00;101291.69;5054377;28;20659;-82
2022/12/02 06:29:44;;;;;;;20.03;10.57;;;;;;;-0.40;100.00;101283.84;5036451;28;20179;-79
2022/12/02 06:32:16;;;;;;;4.07;3.77;;;;;;;-0.37;100.00;101294.16;5054289;28;20421;-79
2022/12/02 06:34:42;;;;;;;4.23;4.10;;;;;;;-0.35;100.00;101291.25;5054160;28;20417;-80
2022/12/02 06:37:20;;;;;;;4.63;4.27;;;;;;;-0.36;100.00;101289.59;5053990;28;20421;-79
2022/12/02 06:39:50;;;;;;;5.23;4.80;;;;;;;-0.37;100.00;101296.84;5054316;28;20502;-78
2022/12/02 06:42:29;;;;;;;25.33;12.33;;;;;;;-0.40;100.00;101294.59;5053833;28;20471;-77
2022/12/02 06:45:15;;;;;;;24.40;6.80;;;;;;;-0.38;100.00;101287.16;5053784;28;20585;-77
2022/12/02 06:47:40;;;;;;;9.00;4.17;;;;;;;-0.32;100.00;101288.94;5053848;28;20464;-77
2022/12/02 06:50:05;;;;;;;12.63;9.47;;;;;;;-0.34;100.00;101287.53;5053966;28;20422;-77
2022/12/02 06:52:34;;;;;;;19.97;8.93;;;;;;;-0.36;100.00;101298.47;5053776;28;20202;-77
2022/12/02 06:54:59;;;;;;;45.07;16.07;;;;;;;-0.39;100.00;101290.88;5053802;28;20175;-77
2022/12/02 06:57:26;;;;;;;0.27;0.27;;;;;;;-0.34;100.00;101293.72;5053633;28;20425;-78
2022/12/02 06:59:51;;;;;;;10.73;6.53;;;;;;;-0.31;100.00;101287.09;5053827;28;20528;-77
2022/12/02 07:02:25;;;;;;;19.30;10.63;;;;;;;-0.35;100.00;101293.94;5053630;28;20418;-78
2022/12/02 07:04:51;;;;;;;29.30;14.73;;;;;;;-0.40;100.00;101297.28;5035551;28;20539;-78
2022/12/02 07:07:22;;;;;;;20.33;7.87;;;;;;;-0.38;100.00;101294.38;5053507;28;20461;-78
2022/12/02 07:10:00;;;;;;;35.83;12.33;;;;;;;-0.39;100.00;101300.78;5053521;28;20453;-79
2022/12/02 07:12:33;;;;;;;56.60;20.20;;;;;;;-0.33;100.00;101310.63;5053362;28;20779;-66
2022/12/02 07:15:15;;;;;;;7.20;2.63;;;;;;;-0.35;100.00;101302.81;5053497;28;20395;-78
2022/12/02 07:17:42;;;;;;;7.10;3.63;;;;;;;-0.37;100.00;101309.44;5053327;28;20634;-78
2022/12/02 07:20:09;;;;;;;29.57;15.07;;;;;;;-0.41;100.00;101305.56;5053270;28;20414;-77
2022/12/02 07:22:39;;;;;;;4.97;4.23;;;;;;;-0.37;100.00;101309.44;5053011;28;20413;-78
2022/12/02 07:25:26;;;;;;;3.40;3.20;;;;;;;-0.34;100.00;101314.38;5053362;28;20422;-78
2022/12/02 07:27:52;;;;;;;34.63;12.10;;;;;;;-0.39;100.00;101306.16;5052548;28;20461;-77
2022/12/02 07:30:30;;;;;;;19.83;8.97;;;;;;;-0.39;100.00;101315.03;5053175;28;20437;-78
2022/12/02 07:32:56;;;;;;;11.20;6.10;;;;;;;-0.36;100.00;101319.13;5053291;28;20638;-78
2022/12/02 07:35:22;;;;;;;16.93;7.30;;;;;;;-0.38;100.00;101311.31;5053290;28;20512;-78
2022/12/02 07:37:47;;;;;;;12.67;4.27;;;;;;;-0.34;100.00;101319.75;5053317;28;20475;-78
2022/12/02 07:40:15;;;;;;;9.67;3.87;;;;;;;-0.34;100.00;101317.06;5053249;28;20993;-78
2022/12/02 07:42:42;;;;;;;19.20;12.67;;;;;;;-0.33;100.00;101326.75;5053532;28;20179;-78
2022/12/02 07:45:08;;;;;;;3.27;2.97;;;;;;;-0.33;100.00;101327.56;5053757;28;20425;-78
2022/12/02 07:47:33;;;;;;;42.53;17.87;;;;;;;-0.35;100.00;101320.78;5053246;28;20956;-78
2022/12/02 07:49:59;;;;;;;6.30;5.73;;;;;;;-0.34;100.00;101328.63;5053693;28;20414;-78
2022/12/02 07:52:24;;;;;;;3.93;3.30;;;;;;;-0.34;100.00;101319.75;5059494;28;20197;-78
2022/12/02 07:54:50;;;;;;;3.83;3.53;;;;;;;-0.34;100.00;101325.09;5059607;28;20538;-78
2022/12/02 07:57:15;;;;;;;35.63;13.53;;;;;;;-0.35;100.00;101321.59;5052732;28;20167;-78
2022/12/02 07:59:40;;;;;;;11.57;6.07;;;;;;;-0.36;100.00;101313.78;5052707;28;20425;-78
2022/12/02 08:02:06;;;;;;;2.40;2.30;;;;;;;-0.35;100.00;101310.03;5052690;28;20187;-78
2022/12/02 08:04:31;;;;;;;17.17;8.03;;;;;;;-0.35;100.00;101307.34;5052600;28;20179;-78
2022/12/02 08:06:56;;;;;;;34.93;14.17;;;;;;;-0.33;100.00;101306.09;5052680;28;20536;-78
2022/12/02 08:09:22;;;;;;;6.87;5.23;;;;;;;-0.33;100.00;101313.31;5052624;28;20186;-78
2022/12/02 08:11:47;;;;;;;7.17;5.40;;;;;;;-0.28;100.00;101307.31;5055531;28;20519;-78
2022/12/02 08:14:12;;;;;;;21.97;8.73;;;;;;;-0.28;100.00;101310.00;5072007;28;20182;-78
2022/12/02 08:16:38;;;;;;;13.47;6.73;;;;;;;-0.30;100.00;101312.88;5072641;28;20532;-78
2022/12/02 08:19:03;;;;;;;35.70;12.70;;;;;;;-0.32;100.00;101313.09;5064208;28;20171;-78
2022/12/02 08:21:29;;;;;;;9.00;8.20;;;;;;;-0.26;100.00;101311.44;5052313;28;20423;-78
2022/12/02 08:23:55;;;;;;;20.47;9.70;;;;;;;-0.31;100.00;101305.88;5052129;28;20175;-78
2022/12/02 08:26:20;;;;;;;5.60;5.10;;;;;;;-0.27;100.00;101309.78;5052098;28;20414;-78
2022/12/02 08:28:45;;;;;;;20.77;8.00;;;;;;;-0.26;100.00;101305.25;5052259;28;20179;-78
2022/12/02 08:31:11;;;;;;;5.60;5.10;;;;;;;-0.31;100.00;101300.50;5052163;28;20270;-78
2022/12/02 08:33:36;;;;;;;9.13;7.57;;;;;;;-0.29;100.00;101306.47;5052078;28;20211;-78
2022/12/02 08:36:03;;;;;;;57.90;22.43;;;;;;;-0.31;100.00;101308.56;5052003;28;20176;-78
2022/12/02 08:38:28;;;;;;;15.60;5.93;;;;;;;-0.23;100.00;101305.63;5051293;28;20642;-78
2022/12/02 08:40:53;;;;;;;22.80;10.33;;;;;;;-0.23;100.00;101305.63;5051601;28;20761;-78
2022/12/02 08:43:19;;;;;;;21.00;9.03;;;;;;;-0.28;100.00;101300.09;5051899;28;20615;-78
2022/12/02 08:45:44;;;;;;;16.27;7.03;;;;;;;-0.24;100.00;101305.84;5051943;28;20194;-78
2022/12/02 08:48:10;;;;;;;20.33;9.00;;;;;;;-0.21;100.00;101310.75;5051736;28;20688;-78
2022/12/02 08:50:36;;;;;;;3.57;3.37;;;;;;;-0.20;100.00;101301.66;5051975;28;20175;-78
2022/12/02 08:53:02;;;;;;;51.20;20.50;;;;;;;-0.26;100.00;101300.69;5051438;28;20957;-77
2022/12/02 08:55:28;;;;;;;26.60;13.63;;;;;;;-0.25;100.00;101313.06;5033804;28;20246;-80
2022/12/02 08:57:53;;;;;;;9.87;3.50;;;;;;;-0.21;100.00;101311.59;5051578;28;20495;-78
2022/12/02 09:00:19;;;;;;;18.40;7.33;;;;;;;-0.22;100.00;101315.31;5051686;28;20171;-78
2022/12/02 09:02:44;;;;;;;36.17;14.70;;;;;;;-0.25;100.00;101306.88;5051606;28;20183;-78
2022/12/02 09:05:09;;;;;;;33.50;14.50;;;;;;;-0.31;100.00;101309.38;5033596;28;20642;-78
2022/12/02 09:07:34;;;;;;;24.10;14.60;;;;;;;-0.25;100.00;101313.06;5033605;28;20772;-78
2022/12/02 09:10:00;;;;;;;56.23;16.73;;;;;;;-0.22;100.00;101315.31;5051407;28;20527;-78
2022/12/02 09:12:26;;;;;;;20.13;10.97;;;;;;;-0.22;100.00;101307.25;5051089;28;20187;-77
2022/12/02 09:14:52;;;;;;;33.60;13.07;;;;;;;-0.21;100.00;101316.97;5051482;28;20176;-78
2022/12/02 09:17:17;;;;;;;9.83;5.47;;;;;;;-0.13;100.00;101314.00;5051553;28;20581;-77
2022/12/02 09:19:42;;;;;;;50.70;19.53;;;;;;;-0.19;100.00;101304.13;5051031;28;20266;-75
2022/12/02 09:22:07;;;;;;;19.87;7.63;;;;;;;-0.18;100.00;101308.47;5051029;28;20198;-79
2022/12/02 09:24:33;;;;;;;23.17;11.10;;;;;;;-0.13;100.00;101315.88;5050647;28;20218;-83
2022/12/02 09:26:58;;;;;;;8.57;7.70;;;;;;;-0.10;100.00;101320.81;5050827;28;20200;-78
2022/12/02 09:29:23;;;;;;;13.30;8.70;;;;;;;-0.07;100.00;101315.00;5050894;28;20179;-78
2022/12/02 09:31:49;;;;;;;15.00;8.43;;;;;;;-0.03;100.00;101314.31;5050541;28;20171;-80
2022/12/02 09:34:14;;;;;;;34.40;13.40;;;;;;;-0.02;100.00;101313.28;5050497;28;20233;-76
2022/12/02 09:36:39;;;;;;;52.60;18.67;;;;;;;-0.09;100.00;101317.06;5050467;28;20182;-75
2022/12/02 09:39:05;;;;;;;21.30;10.07;;;;;;;-0.05;100.00;101327.16;5032655;28;20638;-76
2022/12/02 09:41:30;;;;;;;8.23;6.73;;;;;;;0.00;100.00;101318.47;5050312;28;20178;-75
2022/12/02 09:43:55;;;;;;;12.43;6.10;;;;;;;-0.03;100.00;101310.81;5049913;28;20179;-75
2022/12/02 09:46:21;;;;;;;38.33;16.60;;;;;;;-0.02;100.00;101299.03;5050048;28;20179;-76
2022/12/02 09:48:47;;;;;;;52.73;12.20;;;;;;;0.04;100.00;101311.59;5050329;28;20262;-76
2022/12/02 09:51:12;;;;;;;23.80;12.00;;;;;;;0.03;100.00;101309.13;5050327;28;20171;-76
2022/12/02 09:53:40;;;;;;;7.80;6.83;;;;;;;0.07;100.00;101315.69;5049867;28;20665;-76
2022/12/02 09:56:14;;;;;;;40.77;18.23;;;;;;;0.04;100.00;101316.13;5050291;28;20180;-75
2022/12/02 09:58:39;;;;;;;46.43;17.17;;;;;;;0.09;100.00;101316.28;5050206;28;20511;-75
2022/12/02 10:01:09;;;;;;;19.70;14.47;;;;;;;0.16;100.00;101314.38;5050338;28;20500;-75
2022/12/02 10:03:34;;;;;;;38.63;17.43;;;;;;;0.08;100.00;101314.66;5050008;28;20629;-75
2022/12/02 10:06:03;;;;;;;14.20;9.83;;;;;;;0.14;100.00;101316.44;5051136;28;20440;-76
2022/12/02 10:08:28;;;;;;;4.47;2.37;;;;;;;0.16;100.00;101319.75;5053243;28;20213;-75
2022/12/02 10:10:57;;;;;;;25.67;11.13;;;;;;;0.15;100.00;101318.94;5050058;28;20418;-75
2022/12/02 10:13:26;;;;;;;17.03;9.33;;;;;;;0.13;100.00;101326.38;5049770;28;20713;-75
2022/12/02 10:15:51;;;;;;;43.60;17.90;;;;;;;0.16;100.00;101319.75;5032284;28;20511;-76
2022/12/02 10:18:23;;;;;;;35.80;16.80;;;;;;;0.13;100.00;101314.81;5050068;28;20442;-76
2022/12/02 10:20:49;;;;;;;14.03;6.77;;;;;;;0.15;100.00;101320.81;5050130;28;20587;-75
2022/12/02 10:23:20;;;;;;;20.37;11.33;;;;;;;0.14;100.00;101319.13;5049769;28;20685;-75
2022/12/02 10:25:49;;;;;;;31.83;14.13;;;;;;;0.14;100.00;101328.00;5031908;28;20418;-75
2022/12/02 10:28:29;;;;;;;29.17;12.57;;;;;;;0.17;100.00;101314.16;5049904;28;20465;-76
2022/12/02 10:31:23;;;;;;;22.80;11.40;;;;;;;0.16;100.00;101317.88;5050038;28;20418;-76
2022/12/02 10:34:04;;;;;;;23.50;11.33;;;;;;;0.18;100.00;101306.91;5029546;28;20760;-76
2022/12/02 10:36:40;;;;;;;16.43;9.03;;;;;;;0.24;100.00;101316.78;5050310;28;20183;-74
2022/12/02 10:39:17;;;;;;;42.50;15.17;;;;;;;0.23;100.00;101310.56;5031981;28;20421;-75
2022/12/02 10:41:43;;;;;;;12.37;8.83;;;;;;;0.23;100.00;101328.56;5049861;28;20496;-75
2022/12/02 10:44:20;;;;;;;22.37;13.03;;;;;;;0.20;100.00;101320.94;5049561;28;20560;-75
2022/12/02 10:46:45;;;;;;;37.70;17.70;;;;;;;0.26;100.00;101320.06;5031921;28;20213;-75
2022/12/02 10:49:20;;;;;;;27.63;13.83;;;;;;;0.24;100.00;101314.91;5049827;28;20418;-74
2022/12/02 10:51:45;;;;;;;15.30;9.13;;;;;;;0.26;100.00;101315.50;5049804;28;20244;-74
2022/12/02 10:54:27;;;;;;;30.13;11.80;;;;;;;0.26;100.00;101325.44;5049564;28;20426;-75
2022/12/02 10:56:58;;;;;;;14.57;8.10;;;;;;;0.25;100.00;101331.84;5049381;28;20179;-75
2022/12/02 10:59:24;;;;;;;15.13;10.27;;;;;;;0.28;100.00;101334.09;5049725;28;20418;-75
2022/12/02 11:01:49;;;;;;;1.90;1.73;;;;;;;0.35;100.00;101317.91;5049867;28;20446;-75
2022/12/02 11:04:15;;;;;;;15.27;9.73;;;;;;;0.33;100.00;101326.19;5053203;28;20790;-75
2022/12/02 11:06:44;;;;;;;23.23;12.80;;;;;;;0.33;100.00;101320.81;5053277;28;20197;-75
2022/12/02 11:09:19;;;;;;;26.87;14.67;;;;;;;0.44;100.00;101321.97;5053209;28;20577;-76
2022/12/02 11:12:03;;;;;;;16.47;11.27;;;;;;;0.32;100.00;101321.88;5053281;28;20920;-75
2022/12/02 11:14:50;;;;;;;25.83;14.33;;;;;;;0.38;100.00;101317.47;5053030;28;20470;-75